Historique des mesures à Cassis (13260), France
Quotidien Résumé Juin 9, 2021 Unités:  Métrique    US   Métrique/US
Quotidien Hebdomadaire Mensuel Annuel
  Maximum: Minimum: Moyenne:
Température: 18.1 °C 12 °C 14.9 °C
Point de rosée: 10 °C 4.2 °C 7.3 °C
Humidité: 65% 56% 60%
Vitesse du vent: 14.8km/h 0km/h 4.1km/h
Rafales: 91.8km/h - -
Vent- - WNW
Pression: 1017.1 hPa 1012.4 hPa -
Précipitations: 0.0 mm    
Historical Graphs
 
 
Mesures pour : Juin 9, 2021
Heure Temperature Point de rosée Pression Vent Vitesse du vent Rafales Humidité Pluie (par heure)
00:10 13.8 °C 6.2 °C 1012.5 hPa Calm   3.2 km/h 60% 0.0 mm
01:11 13.3 °C 4.7 °C 1012.7 hPa NW 12.2 km/h 14.8 km/h 56% 0.0 mm
02:10 12.5 °C 4.5 °C 1013.0 hPa WNW 8.6 km/h 13 km/h 58% 0.0 mm
03:11 12.4 °C 5.3 °C 1012.4 hPa WNW 6.8 km/h 16.6 km/h 62% 0.0 mm
04:10 12.1 °C 4.6 °C 1012.4 hPa NNW 6.5 km/h 14.8 km/h 60% 0.0 mm
05:11 12 °C 4.2 °C 1012.4 hPa WNW 5.4 km/h 91.8 km/h 59% 0.0 mm
06:10 12.2 °C 4.9 °C 1012.8 hPa WNW 14.8 km/h 21.2 km/h 61% 0.0 mm
07:11 12.4 °C 4.6 °C 1013.0 hPa WNW 5 km/h 10.4 km/h 59% 0.0 mm
08:10 12.7 °C 5.1 °C 1014.1 hPa WNW 3.6 km/h 8.3 km/h 60% 0.0 mm
09:11 13.8 °C 6.9 °C 1014.7 hPa WNW 6.1 km/h 6.5 km/h 63% 0.0 mm
10:10 14.9 °C 7.9 °C 1015.1 hPa Calm   6.1 km/h 63% 0.0 mm
11:11 16.7 °C 9.4 °C 1015.9 hPa Calm     62% 0.0 mm
12:10 17.8 °C 9.4 °C 1015.8 hPa Calm   1.4 km/h 58% 0.0 mm
13:11 17.4 °C 9.3 °C 1015.9 hPa Calm   2.5 km/h 59% 0.0 mm
14:10 17.9 °C 10 °C 1015.9 hPa WSW 3.6 km/h 4.7 km/h 60% 0.0 mm
15:11 18.1 °C 9.9 °C 1016.2 hPa Calm   2.9 km/h 59% 0.0 mm
16:10 17.8 °C 9.1 °C 1016.5 hPa ENE 5.8 km/h 6.5 km/h 57% 0.0 mm
17:11 17.3 °C 8.7 °C 1016.7 hPa Calm   3.6 km/h 57% 0.0 mm
18:10 16.9 °C 8.6 °C 1017.0 hPa Calm   4.3 km/h 58% 0.0 mm
19:11 15.8 °C 8.6 °C 1017.1 hPa Calm   4.3 km/h 62% 0.0 mm
20:10 15.4 °C 8.4 °C 1017.1 hPa NNW 4 km/h 5 km/h 63% 0.0 mm
21:11 15.2 °C 8.2 °C 1016.5 hPa WNW 7.6 km/h 12.2 km/h 63% 0.0 mm
22:10 14.8 °C 8 °C 1016.5 hPa NW 5 km/h 9.4 km/h 64% 0.0 mm
23:11 14.9 °C 8.4 °C 1016.9 hPa NNW 3.2 km/h 10.4 km/h 65% 0.0 mm
Observations météo à CASSIS
WU-History script by Weather Underground - 2 mb